sensor_id;sensor_type;location;lat;lon;timestamp;P1;durP1;ratioP1;P2;durP2;ratioP2
72904;SDS011;61048;52.162;4.516;2023-02-15T00:01:47;16.58;;;11.25;;
72904;SDS011;61048;52.162;4.516;2023-02-15T00:04:15;14.32;;;9.48;;
72904;SDS011;61048;52.162;4.516;2023-02-15T00:06:46;17.52;;;10.13;;
72904;SDS011;61048;52.162;4.516;2023-02-15T00:09:13;16.40;;;9.73;;
72904;SDS011;61048;52.162;4.516;2023-02-15T00:11:40;18.55;;;11.85;;
72904;SDS011;61048;52.162;4.516;2023-02-15T00:14:08;15.60;;;8.95;;
72904;SDS011;61048;52.162;4.516;2023-02-15T00:16:37;16.75;;;10.88;;
72904;SDS011;61048;52.162;4.516;2023-02-15T00:19:05;14.90;;;8.95;;
72904;SDS011;61048;52.162;4.516;2023-02-15T00:21:33;15.63;;;10.48;;
72904;SDS011;61048;52.162;4.516;2023-02-15T00:24:03;18.20;;;9.25;;
72904;SDS011;61048;52.162;4.516;2023-02-15T00:26:31;15.23;;;9.27;;
72904;SDS011;61048;52.162;4.516;2023-02-15T00:28:58;15.95;;;9.30;;
72904;SDS011;61048;52.162;4.516;2023-02-15T00:31:25;15.80;;;9.55;;
72904;SDS011;61048;52.162;4.516;2023-02-15T00:33:53;15.55;;;10.45;;
72904;SDS011;61048;52.162;4.516;2023-02-15T00:36:20;15.43;;;11.07;;
72904;SDS011;61048;52.162;4.516;2023-02-15T00:38:46;15.63;;;10.73;;
72904;SDS011;61048;52.162;4.516;2023-02-15T00:41:15;15.70;;;10.50;;
72904;SDS011;61048;52.162;4.516;2023-02-15T00:43:41;15.68;;;10.52;;
72904;SDS011;61048;52.162;4.516;2023-02-15T00:46:08;15.13;;;10.88;;
72904;SDS011;61048;52.162;4.516;2023-02-15T00:48:35;13.93;;;9.07;;
72904;SDS011;61048;52.162;4.516;2023-02-15T00:51:02;15.32;;;10.27;;
72904;SDS011;61048;52.162;4.516;2023-02-15T00:53:29;12.88;;;8.45;;
72904;SDS011;61048;52.162;4.516;2023-02-15T00:55:56;15.63;;;10.65;;
72904;SDS011;61048;52.162;4.516;2023-02-15T00:58:25;14.70;;;10.70;;
72904;SDS011;61048;52.162;4.516;2023-02-15T01:00:52;15.70;;;8.60;;
72904;SDS011;61048;52.162;4.516;2023-02-15T01:03:19;14.68;;;8.55;;
72904;SDS011;61048;52.162;4.516;2023-02-15T01:05:47;13.18;;;8.68;;
72904;SDS011;61048;52.162;4.516;2023-02-15T01:08:15;15.32;;;9.75;;
72904;SDS011;61048;52.162;4.516;2023-02-15T01:10:42;13.95;;;9.75;;
72904;SDS011;61048;52.162;4.516;2023-02-15T01:13:12;13.05;;;8.00;;
72904;SDS011;61048;52.162;4.516;2023-02-15T01:15:40;13.90;;;8.73;;
72904;SDS011;61048;52.162;4.516;2023-02-15T01:18:07;13.80;;;8.55;;
72904;SDS011;61048;52.162;4.516;2023-02-15T01:20:35;13.60;;;8.55;;
72904;SDS011;61048;52.162;4.516;2023-02-15T01:23:06;13.88;;;8.20;;
72904;SDS011;61048;52.162;4.516;2023-02-15T01:25:34;13.77;;;8.55;;
72904;SDS011;61048;52.162;4.516;2023-02-15T01:28:02;13.02;;;7.40;;
72904;SDS011;61048;52.162;4.516;2023-02-15T01:30:30;14.68;;;9.98;;
72904;SDS011;61048;52.162;4.516;2023-02-15T01:32:59;12.82;;;8.45;;
72904;SDS011;61048;52.162;4.516;2023-02-15T01:35:26;12.90;;;8.40;;
72904;SDS011;61048;52.162;4.516;2023-02-15T01:37:54;12.38;;;7.60;;
72904;SDS011;61048;52.162;4.516;2023-02-15T01:40:21;12.85;;;7.72;;
72904;SDS011;61048;52.162;4.516;2023-02-15T01:42:49;13.63;;;9.20;;
72904;SDS011;61048;52.162;4.516;2023-02-15T01:45:21;14.38;;;9.10;;
72904;SDS011;61048;52.162;4.516;2023-02-15T01:47:52;14.13;;;10.85;;
72904;SDS011;61048;52.162;4.516;2023-02-15T01:50:25;13.73;;;8.88;;
72904;SDS011;61048;52.162;4.516;2023-02-15T01:52:56;13.40;;;9.65;;
72904;SDS011;61048;52.162;4.516;2023-02-15T01:55:29;12.93;;;8.98;;
72904;SDS011;61048;52.162;4.516;2023-02-15T01:57:58;13.50;;;9.55;;
72904;SDS011;61048;52.162;4.516;2023-02-15T02:00:26;11.07;;;8.15;;
72904;SDS011;61048;52.162;4.516;2023-02-15T02:02:53;13.65;;;9.52;;
72904;SDS011;61048;52.162;4.516;2023-02-15T02:05:24;12.43;;;7.88;;
72904;SDS011;61048;52.162;4.516;2023-02-15T02:07:52;11.88;;;9.00;;
72904;SDS011;61048;52.162;4.516;2023-02-15T02:10:22;11.93;;;8.68;;
72904;SDS011;61048;52.162;4.516;2023-02-15T02:12:51;11.45;;;8.93;;
72904;SDS011;61048;52.162;4.516;2023-02-15T02:15:21;12.15;;;7.80;;
72904;SDS011;61048;52.162;4.516;2023-02-15T02:17:58;11.50;;;8.57;;
72904;SDS011;61048;52.162;4.516;2023-02-15T02:20:46;13.27;;;8.45;;
72904;SDS011;61048;52.162;4.516;2023-02-15T02:23:27;13.32;;;9.07;;
72904;SDS011;61048;52.162;4.516;2023-02-15T02:26:07;12.35;;;8.30;;
72904;SDS011;61048;52.162;4.516;2023-02-15T02:29:23;15.30;;;9.13;;
72904;SDS011;61048;52.162;4.516;2023-02-15T02:35:23;11.43;;;8.65;;
72904;SDS011;61048;52.162;4.516;2023-02-15T02:37:59;11.48;;;7.25;;
72904;SDS011;61048;52.162;4.516;2023-02-15T02:40:32;11.63;;;7.07;;
72904;SDS011;61048;52.162;4.516;2023-02-15T02:43:10;10.65;;;7.95;;
72904;SDS011;61048;52.162;4.516;2023-02-15T02:45:43;11.48;;;8.43;;
72904;SDS011;61048;52.162;4.516;2023-02-15T02:48:15;10.18;;;6.70;;
72904;SDS011;61048;52.162;4.516;2023-02-15T02:50:47;11.02;;;7.32;;
72904;SDS011;61048;52.162;4.516;2023-02-15T02:53:14;11.30;;;7.55;;
72904;SDS011;61048;52.162;4.516;2023-02-15T02:55:41;11.25;;;9.45;;
72904;SDS011;61048;52.162;4.516;2023-02-15T02:58:14;12.30;;;6.97;;
72904;SDS011;61048;52.162;4.516;2023-02-15T03:00:45;10.68;;;7.88;;
72904;SDS011;61048;52.162;4.516;2023-02-15T03:03:18;12.88;;;8.02;;
72904;SDS011;61048;52.162;4.516;2023-02-15T03:05:52;9.88;;;6.53;;
72904;SDS011;61048;52.162;4.516;2023-02-15T03:08:23;13.10;;;8.27;;
72904;SDS011;61048;52.162;4.516;2023-02-15T03:10:54;10.40;;;6.68;;
72904;SDS011;61048;52.162;4.516;2023-02-15T03:13:24;10.50;;;7.70;;
72904;SDS011;61048;52.162;4.516;2023-02-15T03:15:51;9.73;;;6.43;;
72904;SDS011;61048;52.162;4.516;2023-02-15T03:18:38;11.30;;;6.25;;
72904;SDS011;61048;52.162;4.516;2023-02-15T03:23:47;9.43;;;7.00;;
72904;SDS011;61048;52.162;4.516;2023-02-15T03:26:16;10.43;;;7.25;;
72904;SDS011;61048;52.162;4.516;2023-02-15T03:28:45;10.82;;;7.22;;
72904;SDS011;61048;52.162;4.516;2023-02-15T03:31:13;9.68;;;6.53;;
72904;SDS011;61048;52.162;4.516;2023-02-15T03:33:44;10.50;;;8.07;;
72904;SDS011;61048;52.162;4.516;2023-02-15T03:36:17;9.90;;;6.68;;
72904;SDS011;61048;52.162;4.516;2023-02-15T03:38:49;10.25;;;6.70;;
72904;SDS011;61048;52.162;4.516;2023-02-15T03:41:24;10.05;;;7.70;;
72904;SDS011;61048;52.162;4.516;2023-02-15T03:43:56;10.25;;;7.32;;
72904;SDS011;61048;52.162;4.516;2023-02-15T03:46:26;10.75;;;6.97;;
72904;SDS011;61048;52.162;4.516;2023-02-15T03:48:57;9.95;;;6.03;;
72904;SDS011;61048;52.162;4.516;2023-02-15T03:51:29;10.18;;;6.03;;
72904;SDS011;61048;52.162;4.516;2023-02-15T03:54:03;10.00;;;6.40;;
72904;SDS011;61048;52.162;4.516;2023-02-15T03:56:33;9.38;;;7.28;;
72904;SDS011;61048;52.162;4.516;2023-02-15T03:59:01;8.85;;;5.72;;
72904;SDS011;61048;52.162;4.516;2023-02-15T04:01:48;9.05;;;5.78;;
72904;SDS011;61048;52.162;4.516;2023-02-15T04:04:29;8.88;;;5.65;;
72904;SDS011;61048;52.162;4.516;2023-02-15T04:07:02;8.60;;;6.00;;
72904;SDS011;61048;52.162;4.516;2023-02-15T04:09:30;8.07;;;5.43;;
72904;SDS011;61048;52.162;4.516;2023-02-15T04:12:15;9.70;;;6.88;;
72904;SDS011;61048;52.162;4.516;2023-02-15T04:14:41;8.10;;;5.72;;
72904;SDS011;61048;52.162;4.516;2023-02-15T04:19:52;8.45;;;6.03;;
72904;SDS011;61048;52.162;4.516;2023-02-15T04:22:38;8.50;;;5.97;;
72904;SDS011;61048;52.162;4.516;2023-02-15T04:25:22;9.85;;;6.57;;
72904;SDS011;61048;52.162;4.516;2023-02-15T04:27:50;9.07;;;5.93;;
72904;SDS011;61048;52.162;4.516;2023-02-15T04:30:18;10.48;;;6.97;;
72904;SDS011;61048;52.162;4.516;2023-02-15T04:32:46;8.13;;;5.10;;
72904;SDS011;61048;52.162;4.516;2023-02-15T04:35:13;7.95;;;6.13;;
72904;SDS011;61048;52.162;4.516;2023-02-15T04:37:42;8.77;;;5.80;;
72904;SDS011;61048;52.162;4.516;2023-02-15T04:40:11;9.38;;;5.65;;
72904;SDS011;61048;52.162;4.516;2023-02-15T04:42:40;9.05;;;6.30;;
72904;SDS011;61048;52.162;4.516;2023-02-15T04:45:07;9.02;;;6.57;;
72904;SDS011;61048;52.162;4.516;2023-02-15T04:47:34;8.48;;;6.38;;
72904;SDS011;61048;52.162;4.516;2023-02-15T04:50:00;10.05;;;6.72;;
72904;SDS011;61048;52.162;4.516;2023-02-15T04:52:27;10.15;;;5.40;;
72904;SDS011;61048;52.162;4.516;2023-02-15T04:54:55;9.38;;;5.50;;
72904;SDS011;61048;52.162;4.516;2023-02-15T04:57:22;8.48;;;6.38;;
72904;SDS011;61048;52.162;4.516;2023-02-15T04:59:49;9.00;;;5.65;;
72904;SDS011;61048;52.162;4.516;2023-02-15T05:02:16;8.60;;;5.80;;
72904;SDS011;61048;52.162;4.516;2023-02-15T05:04:43;8.88;;;6.55;;
72904;SDS011;61048;52.162;4.516;2023-02-15T05:07:10;7.50;;;5.70;;
72904;SDS011;61048;52.162;4.516;2023-02-15T05:09:36;10.27;;;6.45;;
72904;SDS011;61048;52.162;4.516;2023-02-15T05:12:05;8.50;;;5.88;;
72904;SDS011;61048;52.162;4.516;2023-02-15T05:14:32;9.48;;;7.22;;
72904;SDS011;61048;52.162;4.516;2023-02-15T05:16:59;8.35;;;5.85;;
72904;SDS011;61048;52.162;4.516;2023-02-15T05:19:26;11.30;;;6.95;;
72904;SDS011;61048;52.162;4.516;2023-02-15T05:21:53;10.00;;;6.55;;
72904;SDS011;61048;52.162;4.516;2023-02-15T05:24:20;7.13;;;4.93;;
72904;SDS011;61048;52.162;4.516;2023-02-15T05:27:06;8.43;;;6.32;;
72904;SDS011;61048;52.162;4.516;2023-02-15T05:29:51;11.30;;;6.05;;
72904;SDS011;61048;52.162;4.516;2023-02-15T05:32:18;9.68;;;6.45;;
72904;SDS011;61048;52.162;4.516;2023-02-15T05:34:44;8.60;;;4.82;;
72904;SDS011;61048;52.162;4.516;2023-02-15T05:37:11;11.48;;;6.22;;
72904;SDS011;61048;52.162;4.516;2023-02-15T05:39:38;10.50;;;6.50;;
72904;SDS011;61048;52.162;4.516;2023-02-15T05:42:06;8.88;;;6.35;;
72904;SDS011;61048;52.162;4.516;2023-02-15T05:44:33;12.18;;;6.60;;
72904;SDS011;61048;52.162;4.516;2023-02-15T05:47:00;9.10;;;4.93;;
72904;SDS011;61048;52.162;4.516;2023-02-15T05:49:28;10.13;;;5.88;;
72904;SDS011;61048;52.162;4.516;2023-02-15T05:51:55;11.43;;;7.30;;
72904;SDS011;61048;52.162;4.516;2023-02-15T05:54:22;10.73;;;6.80;;
72904;SDS011;61048;52.162;4.516;2023-02-15T05:56:49;9.82;;;6.97;;
72904;SDS011;61048;52.162;4.516;2023-02-15T05:59:17;11.35;;;7.18;;
72904;SDS011;61048;52.162;4.516;2023-02-15T06:01:44;11.02;;;6.25;;
72904;SDS011;61048;52.162;4.516;2023-02-15T06:04:11;54.33;;;15.35;;
72904;SDS011;61048;52.162;4.516;2023-02-15T06:06:38;54.78;;;17.40;;
72904;SDS011;61048;52.162;4.516;2023-02-15T06:09:05;64.88;;;18.02;;
72904;SDS011;61048;52.162;4.516;2023-02-15T06:11:32;55.13;;;18.42;;
72904;SDS011;61048;52.162;4.516;2023-02-15T06:13:59;62.35;;;16.15;;
72904;SDS011;61048;52.162;4.516;2023-02-15T06:16:27;60.60;;;18.25;;
72904;SDS011;61048;52.162;4.516;2023-02-15T06:18:54;52.80;;;17.00;;
72904;SDS011;61048;52.162;4.516;2023-02-15T06:21:21;51.17;;;15.73;;
72904;SDS011;61048;52.162;4.516;2023-02-15T06:23:48;55.35;;;17.67;;
72904;SDS011;61048;52.162;4.516;2023-02-15T06:26:15;56.60;;;14.75;;
72904;SDS011;61048;52.162;4.516;2023-02-15T06:28:42;48.00;;;15.63;;
72904;SDS011;61048;52.162;4.516;2023-02-15T06:31:08;49.30;;;15.07;;
72904;SDS011;61048;52.162;4.516;2023-02-15T06:33:37;38.83;;;15.15;;
72904;SDS011;61048;52.162;4.516;2023-02-15T06:36:04;45.15;;;16.30;;
72904;SDS011;61048;52.162;4.516;2023-02-15T06:38:31;43.13;;;13.68;;
72904;SDS011;61048;52.162;4.516;2023-02-15T06:40:58;42.08;;;15.68;;
72904;SDS011;61048;52.162;4.516;2023-02-15T06:43:25;40.55;;;14.00;;
72904;SDS011;61048;52.162;4.516;2023-02-15T06:45:52;42.38;;;14.10;;
72904;SDS011;61048;52.162;4.516;2023-02-15T06:48:18;35.92;;;14.15;;
72904;SDS011;61048;52.162;4.516;2023-02-15T06:50:47;31.80;;;12.23;;
72904;SDS011;61048;52.162;4.516;2023-02-15T06:53:14;41.13;;;13.77;;
72904;SDS011;61048;52.162;4.516;2023-02-15T06:55:41;38.88;;;13.43;;
72904;SDS011;61048;52.162;4.516;2023-02-15T06:58:07;33.63;;;12.63;;
72904;SDS011;61048;52.162;4.516;2023-02-15T07:00:34;33.83;;;13.32;;
72904;SDS011;61048;52.162;4.516;2023-02-15T07:03:01;35.95;;;13.43;;
72904;SDS011;61048;52.162;4.516;2023-02-15T07:05:28;33.95;;;12.57;;
72904;SDS011;61048;52.162;4.516;2023-02-15T07:07:57;32.00;;;13.13;;
72904;SDS011;61048;52.162;4.516;2023-02-15T07:10:24;32.95;;;14.10;;
72904;SDS011;61048;52.162;4.516;2023-02-15T07:12:52;31.60;;;12.43;;
72904;SDS011;61048;52.162;4.516;2023-02-15T07:15:18;31.95;;;12.35;;
72904;SDS011;61048;52.162;4.516;2023-02-15T07:17:47;25.88;;;11.80;;
72904;SDS011;61048;52.162;4.516;2023-02-15T07:20:15;26.13;;;10.15;;
72904;SDS011;61048;52.162;4.516;2023-02-15T07:22:43;27.35;;;10.70;;
72904;SDS011;61048;52.162;4.516;2023-02-15T07:25:13;25.13;;;11.15;;
72904;SDS011;61048;52.162;4.516;2023-02-15T07:27:40;23.52;;;10.07;;
72904;SDS011;61048;52.162;4.516;2023-02-15T07:30:08;19.55;;;9.07;;
72904;SDS011;61048;52.162;4.516;2023-02-15T07:32:36;19.85;;;7.82;;
72904;SDS011;61048;52.162;4.516;2023-02-15T07:35:23;15.00;;;8.65;;
72904;SDS011;61048;52.162;4.516;2023-02-15T07:37:50;15.77;;;7.90;;
72904;SDS011;61048;52.162;4.516;2023-02-15T07:40:19;14.85;;;6.38;;
72904;SDS011;61048;52.162;4.516;2023-02-15T07:42:48;15.00;;;9.23;;
72904;SDS011;61048;52.162;4.516;2023-02-15T07:45:16;19.15;;;7.95;;
72904;SDS011;61048;52.162;4.516;2023-02-15T07:47:43;19.65;;;8.50;;
72904;SDS011;61048;52.162;4.516;2023-02-15T07:50:10;19.38;;;8.50;;
72904;SDS011;61048;52.162;4.516;2023-02-15T07:52:37;19.75;;;8.60;;
72904;SDS011;61048;52.162;4.516;2023-02-15T07:55:04;14.60;;;7.53;;
72904;SDS011;61048;52.162;4.516;2023-02-15T07:57:32;15.80;;;7.93;;
72904;SDS011;61048;52.162;4.516;2023-02-15T07:59:59;13.93;;;8.77;;
72904;SDS011;61048;52.162;4.516;2023-02-15T08:02:26;19.98;;;7.97;;
72904;SDS011;61048;52.162;4.516;2023-02-15T08:04:53;18.77;;;7.38;;
72904;SDS011;61048;52.162;4.516;2023-02-15T08:07:20;15.38;;;8.50;;
72904;SDS011;61048;52.162;4.516;2023-02-15T08:09:47;17.58;;;8.57;;
72904;SDS011;61048;52.162;4.516;2023-02-15T08:12:14;16.05;;;7.82;;
72904;SDS011;61048;52.162;4.516;2023-02-15T08:14:42;17.08;;;8.60;;
72904;SDS011;61048;52.162;4.516;2023-02-15T08:17:09;15.55;;;7.80;;
72904;SDS011;61048;52.162;4.516;2023-02-15T08:19:36;18.30;;;9.63;;
72904;SDS011;61048;52.162;4.516;2023-02-15T08:22:03;14.45;;;8.43;;
72904;SDS011;61048;52.162;4.516;2023-02-15T08:24:31;17.85;;;8.73;;
72904;SDS011;61048;52.162;4.516;2023-02-15T08:26:59;13.40;;;8.93;;
72904;SDS011;61048;52.162;4.516;2023-02-15T08:29:28;14.35;;;8.07;;
72904;SDS011;61048;52.162;4.516;2023-02-15T08:31:57;17.48;;;9.27;;
72904;SDS011;61048;52.162;4.516;2023-02-15T08:34:27;16.33;;;8.35;;
72904;SDS011;61048;52.162;4.516;2023-02-15T08:36:55;12.90;;;7.20;;
72904;SDS011;61048;52.162;4.516;2023-02-15T08:39:22;17.10;;;8.43;;
72904;SDS011;61048;52.162;4.516;2023-02-15T08:41:49;15.45;;;8.10;;
72904;SDS011;61048;52.162;4.516;2023-02-15T08:44:16;17.63;;;8.05;;
72904;SDS011;61048;52.162;4.516;2023-02-15T08:46:45;14.55;;;7.28;;
72904;SDS011;61048;52.162;4.516;2023-02-15T08:49:15;14.80;;;8.68;;
72904;SDS011;61048;52.162;4.516;2023-02-15T08:51:43;14.95;;;9.20;;
72904;SDS011;61048;52.162;4.516;2023-02-15T08:54:12;16.00;;;9.50;;
72904;SDS011;61048;52.162;4.516;2023-02-15T08:56:41;14.77;;;7.38;;
72904;SDS011;61048;52.162;4.516;2023-02-15T08:59:11;13.98;;;9.35;;
72904;SDS011;61048;52.162;4.516;2023-02-15T09:01:41;20.95;;;7.70;;
72904;SDS011;61048;52.162;4.516;2023-02-15T09:04:08;15.10;;;7.70;;
72904;SDS011;61048;52.162;4.516;2023-02-15T09:06:37;15.60;;;9.40;;
72904;SDS011;61048;52.162;4.516;2023-02-15T09:09:05;13.00;;;6.80;;
72904;SDS011;61048;52.162;4.516;2023-02-15T09:11:33;13.40;;;7.18;;
72904;SDS011;61048;52.162;4.516;2023-02-15T09:14:02;13.13;;;7.43;;
72904;SDS011;61048;52.162;4.516;2023-02-15T09:16:31;14.23;;;6.55;;
72904;SDS011;61048;52.162;4.516;2023-02-15T09:19:00;15.65;;;8.60;;
72904;SDS011;61048;52.162;4.516;2023-02-15T09:21:29;12.70;;;7.70;;
72904;SDS011;61048;52.162;4.516;2023-02-15T09:23:59;11.05;;;6.60;;
72904;SDS011;61048;52.162;4.516;2023-02-15T09:26:27;13.95;;;8.07;;
72904;SDS011;61048;52.162;4.516;2023-02-15T09:28:56;15.77;;;7.70;;
72904;SDS011;61048;52.162;4.516;2023-02-15T09:31:25;13.02;;;7.43;;
72904;SDS011;61048;52.162;4.516;2023-02-15T09:33:53;12.63;;;8.20;;
72904;SDS011;61048;52.162;4.516;2023-02-15T09:36:21;14.05;;;8.45;;
72904;SDS011;61048;52.162;4.516;2023-02-15T09:38:52;15.23;;;8.57;;
72904;SDS011;61048;52.162;4.516;2023-02-15T09:41:30;14.75;;;7.45;;
72904;SDS011;61048;52.162;4.516;2023-02-15T09:44:12;12.77;;;6.93;;
72904;SDS011;61048;52.162;4.516;2023-02-15T09:46:58;12.95;;;7.07;;
72904;SDS011;61048;52.162;4.516;2023-02-15T09:49:46;12.80;;;8.18;;
72904;SDS011;61048;52.162;4.516;2023-02-15T09:52:27;14.75;;;8.32;;
72904;SDS011;61048;52.162;4.516;2023-02-15T09:55:16;13.68;;;8.68;;
72904;SDS011;61048;52.162;4.516;2023-02-15T09:58:03;13.43;;;9.18;;
72904;SDS011;61048;52.162;4.516;2023-02-15T10:00:38;14.27;;;9.55;;
72904;SDS011;61048;52.162;4.516;2023-02-15T10:03:13;12.23;;;8.40;;
72904;SDS011;61048;52.162;4.516;2023-02-15T10:05:52;11.60;;;7.03;;
72904;SDS011;61048;52.162;4.516;2023-02-15T10:11:29;15.55;;;7.93;;
72904;SDS011;61048;52.162;4.516;2023-02-15T10:14:15;12.38;;;8.95;;
72904;SDS011;61048;52.162;4.516;2023-02-15T10:16:54;12.40;;;7.38;;
72904;SDS011;61048;52.162;4.516;2023-02-15T10:19:30;13.32;;;7.30;;
72904;SDS011;61048;52.162;4.516;2023-02-15T10:22:10;14.30;;;9.00;;
72904;SDS011;61048;52.162;4.516;2023-02-15T10:24:55;12.60;;;6.65;;
72904;SDS011;61048;52.162;4.516;2023-02-15T10:27:37;14.27;;;9.00;;
72904;SDS011;61048;52.162;4.516;2023-02-15T10:30:12;13.55;;;9.48;;
72904;SDS011;61048;52.162;4.516;2023-02-15T10:32:45;14.32;;;7.90;;
72904;SDS011;61048;52.162;4.516;2023-02-15T10:35:20;14.02;;;7.43;;
72904;SDS011;61048;52.162;4.516;2023-02-15T10:38:10;11.15;;;7.72;;
72904;SDS011;61048;52.162;4.516;2023-02-15T10:40:51;18.15;;;8.27;;
72904;SDS011;61048;52.162;4.516;2023-02-15T10:43:35;17.05;;;9.48;;
72904;SDS011;61048;52.162;4.516;2023-02-15T10:46:22;13.68;;;9.57;;
72904;SDS011;61048;52.162;4.516;2023-02-15T10:49:10;16.00;;;10.15;;
72904;SDS011;61048;52.162;4.516;2023-02-15T10:51:51;14.32;;;8.57;;
72904;SDS011;61048;52.162;4.516;2023-02-15T10:54:29;21.83;;;9.82;;
72904;SDS011;61048;52.162;4.516;2023-02-15T10:57:03;16.52;;;9.50;;
72904;SDS011;61048;52.162;4.516;2023-02-15T10:59:42;17.85;;;11.27;;
72904;SDS011;61048;52.162;4.516;2023-02-15T11:02:23;19.88;;;10.40;;
72904;SDS011;61048;52.162;4.516;2023-02-15T11:05:02;19.15;;;13.20;;
72904;SDS011;61048;52.162;4.516;2023-02-15T11:07:46;16.05;;;9.30;;
72904;SDS011;61048;52.162;4.516;2023-02-15T11:10:19;17.50;;;10.88;;
72904;SDS011;61048;52.162;4.516;2023-02-15T11:12:53;17.30;;;9.73;;
72904;SDS011;61048;52.162;4.516;2023-02-15T11:15:24;15.85;;;9.50;;
72904;SDS011;61048;52.162;4.516;2023-02-15T11:17:58;15.77;;;9.02;;
72904;SDS011;61048;52.162;4.516;2023-02-15T11:20:30;16.20;;;10.48;;
72904;SDS011;61048;52.162;4.516;2023-02-15T11:23:07;16.73;;;9.70;;
72904;SDS011;61048;52.162;4.516;2023-02-15T11:25:41;16.08;;;10.30;;
72904;SDS011;61048;52.162;4.516;2023-02-15T11:28:13;17.20;;;10.00;;
72904;SDS011;61048;52.162;4.516;2023-02-15T11:30:47;19.60;;;12.02;;
72904;SDS011;61048;52.162;4.516;2023-02-15T11:33:20;17.80;;;9.93;;
72904;SDS011;61048;52.162;4.516;2023-02-15T11:35:52;20.65;;;10.35;;
72904;SDS011;61048;52.162;4.516;2023-02-15T11:38:26;20.48;;;11.57;;
72904;SDS011;61048;52.162;4.516;2023-02-15T11:40:56;26.80;;;13.00;;
72904;SDS011;61048;52.162;4.516;2023-02-15T11:43:27;18.42;;;9.60;;
72904;SDS011;61048;52.162;4.516;2023-02-15T11:48:25;22.92;;;12.05;;
72904;SDS011;61048;52.162;4.516;2023-02-15T11:50:55;18.10;;;10.27;;
72904;SDS011;61048;52.162;4.516;2023-02-15T11:53:23;18.25;;;11.70;;
72904;SDS011;61048;52.162;4.516;2023-02-15T11:55:52;20.25;;;11.90;;
72904;SDS011;61048;52.162;4.516;2023-02-15T11:58:23;16.77;;;10.80;;
72904;SDS011;61048;52.162;4.516;2023-02-15T12:00:56;17.02;;;10.98;;
72904;SDS011;61048;52.162;4.516;2023-02-15T12:03:32;20.00;;;12.35;;
72904;SDS011;61048;52.162;4.516;2023-02-15T12:06:11;19.55;;;10.98;;
72904;SDS011;61048;52.162;4.516;2023-02-15T12:08:46;18.55;;;10.07;;
72904;SDS011;61048;52.162;4.516;2023-02-15T12:11:20;17.10;;;10.23;;
72904;SDS011;61048;52.162;4.516;2023-02-15T12:13:54;18.80;;;11.48;;
72904;SDS011;61048;52.162;4.516;2023-02-15T12:16:22;19.73;;;11.57;;
72904;SDS011;61048;52.162;4.516;2023-02-15T12:18:50;15.75;;;11.27;;
72904;SDS011;61048;52.162;4.516;2023-02-15T12:21:23;16.55;;;11.05;;
72904;SDS011;61048;52.162;4.516;2023-02-15T12:23:53;17.15;;;10.20;;
72904;SDS011;61048;52.162;4.516;2023-02-15T12:26:26;21.08;;;12.38;;
72904;SDS011;61048;52.162;4.516;2023-02-15T12:28:55;18.30;;;10.13;;
72904;SDS011;61048;52.162;4.516;2023-02-15T12:31:27;17.75;;;10.60;;
72904;SDS011;61048;52.162;4.516;2023-02-15T12:33:59;18.27;;;10.20;;
72904;SDS011;61048;52.162;4.516;2023-02-15T12:36:29;20.65;;;10.73;;
72904;SDS011;61048;52.162;4.516;2023-02-15T12:39:16;19.35;;;10.40;;
72904;SDS011;61048;52.162;4.516;2023-02-15T12:41:46;20.73;;;10.05;;
72904;SDS011;61048;52.162;4.516;2023-02-15T12:44:23;18.92;;;12.38;;
72904;SDS011;61048;52.162;4.516;2023-02-15T12:46:58;19.13;;;12.05;;
72904;SDS011;61048;52.162;4.516;2023-02-15T12:49:29;19.58;;;10.65;;
72904;SDS011;61048;52.162;4.516;2023-02-15T12:51:57;18.23;;;10.52;;
72904;SDS011;61048;52.162;4.516;2023-02-15T12:54:29;18.00;;;10.63;;
72904;SDS011;61048;52.162;4.516;2023-02-15T12:56:58;19.67;;;11.07;;
72904;SDS011;61048;52.162;4.516;2023-02-15T12:59:25;17.35;;;11.77;;
72904;SDS011;61048;52.162;4.516;2023-02-15T13:01:52;20.48;;;12.82;;
72904;SDS011;61048;52.162;4.516;2023-02-15T13:04:21;20.40;;;12.27;;
72904;SDS011;61048;52.162;4.516;2023-02-15T13:06:53;19.80;;;10.90;;
72904;SDS011;61048;52.162;4.516;2023-02-15T13:09:25;19.08;;;11.13;;
72904;SDS011;61048;52.162;4.516;2023-02-15T13:12:14;18.98;;;12.38;;
72904;SDS011;61048;52.162;4.516;2023-02-15T13:14:44;19.23;;;11.45;;
72904;SDS011;61048;52.162;4.516;2023-02-15T13:17:16;19.13;;;10.40;;
72904;SDS011;61048;52.162;4.516;2023-02-15T13:19:44;20.27;;;10.63;;
72904;SDS011;61048;52.162;4.516;2023-02-15T13:22:16;17.92;;;9.63;;
72904;SDS011;61048;52.162;4.516;2023-02-15T13:24:47;18.20;;;13.23;;
72904;SDS011;61048;52.162;4.516;2023-02-15T13:27:16;20.55;;;12.98;;
72904;SDS011;61048;52.162;4.516;2023-02-15T13:29:46;19.42;;;11.73;;
72904;SDS011;61048;52.162;4.516;2023-02-15T13:32:21;18.23;;;10.63;;
72904;SDS011;61048;52.162;4.516;2023-02-15T13:34:54;19.50;;;10.07;;
72904;SDS011;61048;52.162;4.516;2023-02-15T13:37:29;18.10;;;10.07;;
72904;SDS011;61048;52.162;4.516;2023-02-15T13:40:18;16.05;;;10.73;;
72904;SDS011;61048;52.162;4.516;2023-02-15T13:42:49;18.73;;;10.35;;
72904;SDS011;61048;52.162;4.516;2023-02-15T13:45:26;19.88;;;10.23;;
72904;SDS011;61048;52.162;4.516;2023-02-15T13:48:04;17.77;;;10.77;;
72904;SDS011;61048;52.162;4.516;2023-02-15T13:53:39;16.52;;;11.60;;
72904;SDS011;61048;52.162;4.516;2023-02-15T13:56:16;17.20;;;9.98;;
72904;SDS011;61048;52.162;4.516;2023-02-15T13:58:55;17.13;;;10.00;;
72904;SDS011;61048;52.162;4.516;2023-02-15T14:01:52;19.00;;;11.80;;
72904;SDS011;61048;52.162;4.516;2023-02-15T14:07:33;20.98;;;11.52;;
72904;SDS011;61048;52.162;4.516;2023-02-15T14:10:21;18.20;;;11.57;;
72904;SDS011;61048;52.162;4.516;2023-02-15T14:13:02;18.02;;;9.98;;
72904;SDS011;61048;52.162;4.516;2023-02-15T14:15:50;18.88;;;10.77;;
72904;SDS011;61048;52.162;4.516;2023-02-15T14:18:25;18.50;;;10.07;;
72904;SDS011;61048;52.162;4.516;2023-02-15T14:21:02;20.00;;;10.38;;
72904;SDS011;61048;52.162;4.516;2023-02-15T14:23:36;21.40;;;10.20;;
72904;SDS011;61048;52.162;4.516;2023-02-15T14:26:11;17.70;;;9.73;;
72904;SDS011;61048;52.162;4.516;2023-02-15T14:28:47;21.48;;;10.00;;
72904;SDS011;61048;52.162;4.516;2023-02-15T14:31:18;17.10;;;8.82;;
72904;SDS011;61048;52.162;4.516;2023-02-15T14:33:49;17.35;;;8.90;;
72904;SDS011;61048;52.162;4.516;2023-02-15T14:36:20;15.43;;;9.57;;
72904;SDS011;61048;52.162;4.516;2023-02-15T14:39:00;19.45;;;10.25;;
72904;SDS011;61048;52.162;4.516;2023-02-15T14:41:57;16.65;;;9.77;;
72904;SDS011;61048;52.162;4.516;2023-02-15T14:44:27;17.35;;;9.38;;
72904;SDS011;61048;52.162;4.516;2023-02-15T14:47:04;18.17;;;9.40;;
72904;SDS011;61048;52.162;4.516;2023-02-15T14:49:36;21.77;;;10.30;;
72904;SDS011;61048;52.162;4.516;2023-02-15T14:52:05;18.10;;;9.20;;
72904;SDS011;61048;52.162;4.516;2023-02-15T14:54:52;18.13;;;9.93;;
72904;SDS011;61048;52.162;4.516;2023-02-15T14:57:34;18.40;;;9.85;;
72904;SDS011;61048;52.162;4.516;2023-02-15T15:02:59;22.63;;;11.55;;
72904;SDS011;61048;52.162;4.516;2023-02-15T15:05:29;20.55;;;11.80;;
72904;SDS011;61048;52.162;4.516;2023-02-15T15:08:00;19.92;;;11.57;;
72904;SDS011;61048;52.162;4.516;2023-02-15T15:10:40;21.83;;;13.38;;
72904;SDS011;61048;52.162;4.516;2023-02-15T15:16:23;21.80;;;12.68;;
72904;SDS011;61048;52.162;4.516;2023-02-15T15:19:08;24.52;;;13.30;;
72904;SDS011;61048;52.162;4.516;2023-02-15T15:21:55;23.38;;;11.90;;
72904;SDS011;61048;52.162;4.516;2023-02-15T15:24:50;23.65;;;11.70;;